Time;durP1;ratioP1;P1;durP2;ratioP2;P2;SDS_P1;SDS_P2;PMS_P1;PMS_P2;Temp;Humidity;BMP_temperature;BMP_pressure;BME280_temperature;BME280_humidity;BME280_pressure;Samples;Min_cycle;Max_cycle;Signal;HPM_P1;HPM_P2
2023/09/03 00:00:23;;;;;;;9.82;3.60;;;;;;;25.95;49.69;99239.91;2054340;28;20489;-55
2023/09/03 00:01:25;;;;;;;10.30;4.07;;;;;;;25.97;49.83;99243.22;2055819;28;20050;-54
2023/09/03 00:02:27;;;;;;;12.85;4.50;;;;;;;25.97;49.33;99238.59;2052066;28;20051;-54
2023/09/03 00:03:28;;;;;;;12.43;3.90;;;;;;;25.95;49.48;99240.72;2051695;28;20728;-54
2023/09/03 00:04:30;;;;;;;7.90;4.38;;;;;;;25.96;49.54;99236.09;2053719;28;20050;-53
2023/09/03 00:05:31;;;;;;;7.95;3.45;;;;;;;25.94;49.88;99230.91;2055680;28;21912;-51
2023/09/03 00:06:33;;;;;;;7.10;3.75;;;;;;;25.95;49.58;99229.03;2054452;28;20512;-49
2023/09/03 00:07:34;;;;;;;8.43;3.97;;;;;;;25.96;49.59;99231.50;2057358;28;20069;-54
2023/09/03 00:08:36;;;;;;;8.50;3.67;;;;;;;25.90;49.88;99232.44;2053125;28;20320;-51
2023/09/03 00:09:36;;;;;;;7.63;3.88;;;;;;;25.94;49.44;99232.81;2055140;28;20511;-54
2023/09/03 00:10:38;;;;;;;6.35;3.28;;;;;;;25.91;49.80;99233.25;2054621;28;20261;-52
2023/09/03 00:11:39;;;;;;;6.43;3.65;;;;;;;25.84;49.87;99236.94;2053333;28;20086;-55
2023/09/03 00:12:45;;;;;;;6.70;3.67;;;;;;;25.83;49.97;99235.28;2057042;28;24484;-53
2023/09/03 00:13:46;;;;;;;10.15;3.50;;;;;;;25.81;49.40;99239.28;2056361;28;20049;-49
2023/09/03 00:14:48;;;;;;;7.72;3.80;;;;;;;25.83;50.04;99238.00;2056614;28;20470;-52
2023/09/03 00:15:49;;;;;;;9.70;3.92;;;;;;;25.88;49.70;99244.59;2054855;28;20045;-50
2023/09/03 00:16:51;;;;;;;10.02;4.47;;;;;;;25.90;49.71;99246.03;2056591;28;20413;-52
2023/09/03 00:17:53;;;;;;;8.77;4.10;;;;;;;25.89;49.86;99240.84;2054569;28;20045;-49
2023/09/03 00:18:54;;;;;;;7.70;4.07;;;;;;;25.91;49.54;99238.69;2054223;28;20052;-53
2023/09/03 00:19:56;;;;;;;11.15;3.60;;;;;;;25.91;49.42;99239.56;2050889;28;20407;-49
2023/09/03 00:20:58;;;;;;;7.38;3.65;;;;;;;25.87;49.79;99232.09;2055259;28;20082;-53
2023/09/03 00:22:00;;;;;;;6.13;3.42;;;;;;;25.83;49.27;99237.19;2056069;28;20207;-51
2023/09/03 00:23:01;;;;;;;8.63;3.05;;;;;;;25.81;49.55;99234.66;2057517;28;20053;-52
2023/09/03 00:24:03;;;;;;;9.73;3.65;;;;;;;25.79;49.43;99242.22;2057409;28;20579;-52
2023/09/03 00:25:04;;;;;;;12.65;3.20;;;;;;;25.76;49.92;99241.88;2057024;28;20042;-52
2023/09/03 00:26:06;;;;;;;6.68;3.15;;;;;;;25.73;49.61;99245.88;2057229;28;20138;-51
2023/09/03 00:27:07;;;;;;;7.75;4.03;;;;;;;25.74;49.86;99254.84;2055827;28;20070;-50
2023/09/03 00:28:09;;;;;;;8.18;3.50;;;;;;;25.79;49.63;99246.81;2055721;28;20054;-51
2023/09/03 00:29:10;;;;;;;5.15;2.90;;;;;;;25.78;49.56;99256.06;2050752;28;20551;-52
2023/09/03 00:30:12;;;;;;;5.97;2.53;;;;;;;25.82;49.26;99252.59;2052883;28;20061;-51
2023/09/03 00:31:13;;;;;;;7.40;3.50;;;;;;;25.85;49.02;99254.91;2055430;28;20065;-49
2023/09/03 00:32:17;;;;;;;6.50;2.72;;;;;;;25.85;49.00;99263.06;2054579;28;20880;-50
2023/09/03 00:33:17;;;;;;;4.95;2.97;;;;;;;25.82;49.33;99258.03;2054691;28;20038;-51
2023/09/03 00:34:19;;;;;;;9.30;3.10;;;;;;;25.81;49.57;99258.28;2053944;28;20126;-50
2023/09/03 00:35:20;;;;;;;6.55;3.40;;;;;;;25.78;49.26;99256.06;2057332;28;20069;-50
2023/09/03 00:36:22;;;;;;;6.53;2.83;;;;;;;25.83;49.31;99256.22;2055048;28;20137;-53
2023/09/03 00:37:23;;;;;;;6.88;3.70;;;;;;;25.81;48.97;99250.97;2054709;28;20125;-50
2023/09/03 00:38:25;;;;;;;6.68;3.28;;;;;;;25.81;49.19;99261.00;2057879;28;20057;-51
2023/09/03 00:39:25;;;;;;;7.05;2.67;;;;;;;25.84;49.01;99260.56;2054820;28;20089;-53
2023/09/03 00:40:27;;;;;;;5.13;3.22;;;;;;;25.84;49.34;99257.84;2056678;28;20436;-49
2023/09/03 00:41:29;;;;;;;11.02;3.50;;;;;;;25.89;48.82;99251.72;2054658;28;20684;-49
2023/09/03 00:42:31;;;;;;;6.28;3.63;;;;;;;25.87;49.44;99253.84;2055730;28;20618;-50
2023/09/03 00:43:32;;;;;;;9.27;2.97;;;;;;;25.91;48.97;99250.41;2057262;28;20477;-51
2023/09/03 00:44:34;;;;;;;5.55;2.80;;;;;;;25.89;48.81;99247.09;2057176;28;20479;-50
2023/09/03 00:45:35;;;;;;;7.05;3.30;;;;;;;25.87;48.76;99249.22;2056510;28;20053;-51
2023/09/03 00:46:37;;;;;;;9.02;3.67;;;;;;;25.89;48.89;99252.53;2055389;28;20145;-53
2023/09/03 00:47:40;;;;;;;4.97;3.00;;;;;;;25.87;48.97;99249.22;2056225;28;20162;-54
2023/09/03 00:48:42;;;;;;;7.03;3.03;;;;;;;25.85;48.89;99254.91;2056710;28;20435;-52
2023/09/03 00:49:44;;;;;;;6.72;3.13;;;;;;;25.84;48.78;99249.69;2053855;28;20402;-52
2023/09/03 00:50:47;;;;;;;6.20;3.42;;;;;;;25.83;48.61;99248.88;2057047;28;20338;-49
2023/09/03 00:51:51;;;;;;;7.25;2.85;;;;;;;25.83;48.75;99254.31;2053040;28;20062;-52
2023/09/03 00:52:52;;;;;;;4.38;3.17;;;;;;;25.76;49.58;99250.03;2057220;28;20070;-51
2023/09/03 00:53:55;;;;;;;8.60;3.35;;;;;;;25.71;49.65;99250.72;2054908;28;20532;-49
2023/09/03 00:54:57;;;;;;;6.88;2.92;;;;;;;25.72;49.89;99254.28;2054752;28;20535;-50
2023/09/03 00:55:59;;;;;;;6.10;3.00;;;;;;;25.71;49.39;99250.72;2054453;28;20398;-50
2023/09/03 00:57:01;;;;;;;5.80;2.70;;;;;;;25.74;49.59;99241.28;2054318;28;20053;-49
2023/09/03 00:58:04;;;;;;;7.13;2.90;;;;;;;25.78;49.25;99245.19;2055413;28;20161;-51
2023/09/03 00:59:06;;;;;;;4.97;2.20;;;;;;;25.76;49.13;99241.88;2055962;28;20058;-50
2023/09/03 01:00:08;;;;;;;6.82;3.08;;;;;;;25.78;48.84;99245.19;2053374;28;20051;-52
2023/09/03 01:01:10;;;;;;;9.05;3.30;;;;;;;25.81;48.70;99250.16;2058351;28;20519;-50
2023/09/03 01:02:15;;;;;;;7.60;2.90;;;;;;;25.79;49.42;99241.38;2055280;28;20166;-49
2023/09/03 01:03:18;;;;;;;8.10;2.85;;;;;;;25.80;48.68;99245.78;2056354;28;20073;-49
2023/09/03 01:04:20;;;;;;;5.43;2.92;;;;;;;25.83;48.80;99242.63;2053482;28;20320;-52
2023/09/03 01:05:21;;;;;;;6.25;3.13;;;;;;;25.84;48.92;99236.13;2053975;28;20050;-52
2023/09/03 01:06:24;;;;;;;6.97;3.47;;;;;;;25.83;49.23;99231.75;2057554;28;20322;-49
2023/09/03 01:07:24;;;;;;;4.40;2.53;;;;;;;25.82;49.34;99235.47;2057543;28;20257;-50
2023/09/03 01:08:27;;;;;;;6.72;3.38;;;;;;;25.83;48.78;99240.72;2055169;28;20058;-52
2023/09/03 01:09:28;;;;;;;4.15;2.70;;;;;;;25.83;49.25;99238.00;2056558;28;20082;-50
2023/09/03 01:10:37;;;;;;;6.28;2.90;;;;;;;25.83;49.09;99237.19;2056701;28;20737;-52
2023/09/03 01:11:45;;;;;;;7.28;4.13;;;;;;;25.83;49.08;99229.84;2055128;28;20508;-54
2023/09/03 01:12:55;;;;;;;4.93;2.65;;;;;;;25.81;49.00;99234.66;2053855;28;20122;-53
2023/09/03 01:14:04;;;;;;;5.88;3.55;;;;;;;25.69;49.72;99231.13;2055557;28;20115;-53
2023/09/03 01:15:13;;;;;;;4.80;2.88;;;;;;;25.60;49.58;99227.09;2057101;28;20050;-50
2023/09/03 01:16:18;;;;;;;5.72;3.33;;;;;;;25.55;50.04;99235.97;2054515;28;20047;-52
2023/09/03 01:17:29;;;;;;;6.47;2.60;;;;;;;25.62;49.63;99225.78;2055383;28;20054;-51
2023/09/03 01:18:32;;;;;;;;;;;;;;;25.44;50.13;99236.78;2053493;28;20483;-51
2023/09/03 01:19:53;;;;;;;4.72;2.63;;;;;;;25.52;49.47;99241.88;2057399;28;19933;-52
2023/09/03 01:21:16;;;;;;;6.88;3.08;;;;;;;25.58;49.71;99235.50;2055335;28;20472;-49
2023/09/03 01:22:28;;;;;;;3.30;2.70;;;;;;;25.59;49.20;99242.56;2054075;28;20047;-54
2023/09/03 01:23:38;;;;;;;5.55;3.20;;;;;;;25.54;49.85;99233.47;2054799;28;21076;-53
2023/09/03 01:24:57;;;;;;;4.68;2.47;;;;;;;25.47;50.16;99239.03;2055225;28;20187;-55
2023/09/03 01:26:08;;;;;;;5.35;3.15;;;;;;;25.42;50.15;99236.19;2053468;28;20701;-53
2023/09/03 01:27:22;;;;;;;5.00;2.50;;;;;;;25.45;49.86;99241.13;2056206;28;20082;-55
2023/09/03 01:28:26;;;;;;;3.33;2.60;;;;;;;25.43;49.71;99237.81;2055493;28;20043;-54
2023/09/03 01:29:31;;;;;;;5.03;2.58;;;;;;;25.46;50.24;99239.25;2054353;28;20046;-53
2023/09/03 01:30:32;;;;;;;6.85;2.47;;;;;;;25.46;50.13;99239.25;2055244;28;20278;-51
2023/09/03 01:31:36;;;;;;;5.65;3.35;;;;;;;25.49;49.77;99241.47;2055491;28;20137;-53
2023/09/03 01:32:38;;;;;;;6.35;2.70;;;;;;;25.48;49.95;99237.94;2053233;28;20077;-51
2023/09/03 01:33:42;;;;;;;5.90;2.65;;;;;;;25.56;49.91;99240.31;2056318;28;20053;-52
2023/09/03 01:34:44;;;;;;;5.70;2.83;;;;;;;25.55;49.97;99237.84;2055483;28;20416;-49
2023/09/03 01:35:47;;;;;;;4.95;2.70;;;;;;;25.52;49.99;99241.00;2053798;28;20058;-52
2023/09/03 01:36:49;;;;;;;7.50;3.15;;;;;;;25.50;50.16;99241.25;2054114;28;20054;-51
2023/09/03 01:37:50;;;;;;;4.93;2.33;;;;;;;25.49;49.73;99242.34;2055577;28;20080;-49
2023/09/03 01:38:52;;;;;;;5.90;2.42;;;;;;;25.49;49.72;99241.47;2055076;28;20522;-50
2023/09/03 01:39:53;;;;;;;7.88;2.95;;;;;;;25.45;49.75;99241.13;2054064;28;20081;-52
2023/09/03 01:40:55;;;;;;;5.57;2.63;;;;;;;25.47;50.01;99244.44;2054894;28;20038;-50
2023/09/03 01:41:56;;;;;;;4.88;3.25;;;;;;;25.50;49.87;99241.25;2054755;28;20258;-54
2023/09/03 01:42:58;;;;;;;7.10;2.60;;;;;;;25.49;49.59;99246.91;2056598;28;20056;-54
2023/09/03 01:44:02;;;;;;;5.78;3.88;;;;;;;25.53;49.66;99246.22;2055906;28;20295;-50
2023/09/03 01:45:04;;;;;;;4.85;3.22;;;;;;;25.51;49.69;99245.63;2054494;28;20081;-50
2023/09/03 01:46:08;;;;;;;6.13;2.85;;;;;;;25.49;49.88;99246.91;2054691;28;20054;-53
2023/09/03 01:47:19;;;;;;;8.68;3.30;;;;;;;25.48;50.02;99253.41;2054594;28;20096;-51
2023/09/03 01:48:33;;;;;;;7.07;3.25;;;;;;;25.47;49.45;99249.06;2053830;28;20149;-53
2023/09/03 01:49:41;;;;;;;6.70;3.20;;;;;;;25.49;49.44;99244.19;2052545;28;20457;-53
2023/09/03 01:50:46;;;;;;;5.63;2.75;;;;;;;25.53;49.42;99257.09;2056756;28;20133;-51
2023/09/03 01:51:57;;;;;;;6.55;2.58;;;;;;;25.55;49.76;99251.44;2053574;28;20084;-51
2023/09/03 01:53:04;;;;;;;4.28;2.30;;;;;;;25.52;49.86;99247.28;2056421;28;20054;-54
2023/09/03 01:54:13;;;;;;;4.60;2.67;;;;;;;25.54;49.72;99253.31;2056868;28;20415;-54
2023/09/03 01:55:18;;;;;;;5.03;3.10;;;;;;;25.58;49.36;99250.97;2054905;28;20137;-51
2023/09/03 01:56:23;;;;;;;5.18;2.47;;;;;;;25.59;49.74;99252.59;2055217;28;20852;-53
2023/09/03 01:57:28;;;;;;;8.75;3.45;;;;;;;25.60;49.35;99252.38;2055332;28;20112;-53
2023/09/03 01:58:34;;;;;;;9.23;2.75;;;;;;;25.62;49.43;99261.09;2051541;28;20610;-53
2023/09/03 01:59:42;;;;;;;6.05;2.05;;;;;;;25.59;50.25;99258.88;2055954;28;20516;-52
2023/09/03 02:00:46;;;;;;;5.65;2.72;;;;;;;25.60;49.62;99257.81;2054675;28;20116;-51
2023/09/03 02:01:50;;;;;;;4.97;2.92;;;;;;;25.58;50.43;99262.66;2053444;28;20045;-49
2023/09/03 02:02:53;;;;;;;4.57;2.63;;;;;;;25.60;50.16;99265.13;2056364;28;20124;-54
2023/09/03 02:03:54;;;;;;;5.10;2.88;;;;;;;25.57;50.17;99260.16;2056610;28;20137;-53
2023/09/03 02:04:56;;;;;;;4.32;3.05;;;;;;;25.55;50.42;99260.41;2053566;28;20058;-52
2023/09/03 02:05:57;;;;;;;6.13;2.75;;;;;;;25.56;50.35;99264.75;2054989;28;20061;-49
2023/09/03 02:06:58;;;;;;;4.20;2.65;;;;;;;25.57;50.19;99258.25;2055458;28;20500;-51
2023/09/03 02:08:00;;;;;;;3.90;2.55;;;;;;;25.56;50.09;99259.34;2056847;28;21683;-49
2023/09/03 02:09:01;;;;;;;3.75;2.20;;;;;;;25.58;50.01;99257.22;2053126;28;20506;-54
2023/09/03 02:10:03;;;;;;;4.68;2.63;;;;;;;25.60;50.06;99255.09;2055070;28;20241;-53
2023/09/03 02:11:04;;;;;;;4.80;2.63;;;;;;;25.60;49.81;99255.09;2054007;28;20050;-52
2023/09/03 02:12:07;;;;;;;5.40;2.33;;;;;;;25.59;49.91;99248.00;2056554;28;20046;-53
2023/09/03 02:13:08;;;;;;;3.92;2.95;;;;;;;25.61;50.09;99255.94;2053648;28;20483;-52
2023/09/03 02:14:10;;;;;;;5.57;2.85;;;;;;;25.62;50.11;99247.53;2056246;28;20061;-53
2023/09/03 02:15:12;;;;;;;6.32;2.47;;;;;;;25.63;50.06;99254.63;2055304;28;20469;-50
2023/09/03 02:16:14;;;;;;;4.63;2.58;;;;;;;25.63;49.94;99251.06;2055841;28;20054;-50
2023/09/03 02:17:19;;;;;;;6.68;3.00;;;;;;;25.63;50.38;99249.19;2054988;28;20133;-51
2023/09/03 02:18:21;;;;;;;4.63;3.17;;;;;;;25.63;50.30;99248.34;2053772;28;20411;-49
2023/09/03 02:19:22;;;;;;;8.45;3.80;;;;;;;25.64;50.30;99244.59;2054106;28;20052;-50
2023/09/03 02:20:24;;;;;;;5.65;3.05;;;;;;;25.62;50.41;99244.81;2055508;28;20100;-52
2023/09/03 02:21:25;;;;;;;7.63;3.22;;;;;;;25.58;50.15;99251.78;2054103;28;20134;-49
2023/09/03 02:22:27;;;;;;;7.22;2.30;;;;;;;25.59;50.08;99242.56;2057544;28;20061;-49
2023/09/03 02:23:27;;;;;;;12.07;2.90;;;;;;;25.60;50.21;99248.81;2056536;28;20145;-49
2023/09/03 02:24:29;;;;;;;3.03;2.40;;;;;;;25.61;49.95;99245.06;2056963;28;20058;-49
2023/09/03 02:25:30;;;;;;;5.18;2.78;;;;;;;25.61;50.32;99250.50;2055369;28;20054;-51
2023/09/03 02:26:32;;;;;;;4.53;2.50;;;;;;;25.63;50.08;99243.75;2055942;28;20082;-49
2023/09/03 02:27:33;;;;;;;5.95;3.38;;;;;;;25.64;50.53;99248.13;2055133;28;20054;-50
2023/09/03 02:28:37;;;;;;;4.03;2.60;;;;;;;25.63;50.16;99242.91;2057000;28;20503;-52
2023/09/03 02:29:39;;;;;;;5.25;2.72;;;;;;;25.63;50.46;99243.75;2047111;28;20401;-50
2023/09/03 02:30:42;;;;;;;3.15;2.50;;;;;;;25.62;50.64;99250.25;2052889;28;20057;-54
2023/09/03 02:31:43;;;;;;;6.78;2.97;;;;;;;25.62;50.85;99246.69;2055757;28;20053;-49
2023/09/03 02:32:45;;;;;;;4.60;2.70;;;;;;;25.62;50.71;99247.53;2053188;28;20751;-52
2023/09/03 02:33:45;;;;;;;5.60;2.72;;;;;;;25.60;50.28;99244.25;2051461;28;20417;-50
2023/09/03 02:34:47;;;;;;;4.80;2.47;;;;;;;25.60;50.68;99246.09;2055191;28;20069;-49
2023/09/03 02:35:48;;;;;;;4.97;2.72;;;;;;;25.59;50.59;99248.00;2057075;28;20691;-50
2023/09/03 02:36:49;;;;;;;5.30;1.88;;;;;;;25.60;50.69;99237.94;2055017;28;20125;-51
2023/09/03 02:37:51;;;;;;;5.78;2.15;;;;;;;25.61;50.88;99243.16;2054248;28;20093;-50
2023/09/03 02:38:59;;;;;;;6.40;2.35;;;;;;;25.61;50.67;99243.16;2053495;28;20086;-50
2023/09/03 02:40:01;;;;;;;5.30;2.53;;;;;;;25.60;50.62;99249.66;2055140;28;20086;-52
2023/09/03 02:41:01;;;;;;;5.13;2.38;;;;;;;25.60;50.78;99243.38;2053863;28;20517;-49
2023/09/03 02:42:04;;;;;;;3.78;2.55;;;;;;;25.58;50.61;99246.34;2055358;28;20050;-50
2023/09/03 02:43:05;;;;;;;5.90;2.40;;;;;;;25.61;50.78;99243.16;2054219;28;20725;-52
2023/09/03 02:44:09;;;;;;;6.10;2.80;;;;;;;25.58;50.70;99243.63;2053802;28;20060;-52
2023/09/03 02:45:10;;;;;;;8.90;3.33;;;;;;;25.56;50.89;99245.75;2055843;28;20069;-54
2023/09/03 02:46:13;;;;;;;4.15;2.70;;;;;;;25.57;50.88;99244.69;2055556;28;20854;-50
2023/09/03 02:47:14;;;;;;;8.65;2.55;;;;;;;25.59;50.59;99248.00;2055201;28;20077;-51
2023/09/03 02:48:15;;;;;;;5.63;2.70;;;;;;;25.58;50.45;99249.06;2054606;28;20129;-52
2023/09/03 02:49:17;;;;;;;7.25;2.60;;;;;;;25.60;50.61;99246.09;2053969;28;20061;-50
2023/09/03 02:50:17;;;;;;;5.13;2.55;;;;;;;25.60;50.34;99246.97;2055935;28;20046;-51
2023/09/03 02:51:20;;;;;;;6.65;3.00;;;;;;;25.61;50.94;99247.78;2053862;28;20707;-51
2023/09/03 02:52:20;;;;;;;5.80;2.63;;;;;;;25.61;50.36;99250.50;2055076;28;20085;-56
2023/09/03 02:53:22;;;;;;;5.65;2.97;;;;;;;25.60;51.05;99244.25;2054860;28;20138;-52
2023/09/03 02:54:23;;;;;;;4.53;2.55;;;;;;;25.58;50.92;99245.53;2056901;28;20207;-53
2023/09/03 02:55:25;;;;;;;4.57;2.50;;;;;;;25.56;51.16;99248.47;2054434;28;20104;-53
2023/09/03 02:56:26;;;;;;;3.95;2.72;;;;;;;25.55;51.13;99246.81;2053519;28;20512;-54
2023/09/03 02:57:28;;;;;;;5.18;2.78;;;;;;;25.52;51.11;99246.44;2054675;28;20050;-52
2023/09/03 02:58:28;;;;;;;5.20;2.17;;;;;;;25.46;51.20;99248.22;2054527;28;20251;-53
2023/09/03 02:59:33;;;;;;;5.95;3.00;;;;;;;25.44;51.10;99239.50;2053666;28;20050;-50
2023/09/03 03:00:34;;;;;;;4.47;2.40;;;;;;;25.39;52.01;99252.94;2050784;28;20148;-49
2023/09/03 03:01:38;;;;;;;5.65;2.95;;;;;;;25.39;51.75;99245.63;2054341;28;20098;-50
2023/09/03 03:02:38;;;;;;;5.75;2.83;;;;;;;25.40;51.54;99243.72;2054855;28;20565;-51
2023/09/03 03:03:42;;;;;;;6.20;2.85;;;;;;;25.39;51.62;99250.22;2053207;28;20057;-53
2023/09/03 03:04:43;;;;;;;4.55;2.47;;;;;;;25.35;51.93;99244.44;2052298;28;20070;-53
2023/09/03 03:05:43;;;;;;;4.18;2.15;;;;;;;25.30;51.74;99241.59;2053994;28;20501;-53
2023/09/03 03:06:45;;;;;;;3.92;2.47;;;;;;;25.29;51.91;99242.63;2054973;28;20497;-53
2023/09/03 03:07:46;;;;;;;6.72;2.78;;;;;;;25.28;51.96;99246.41;2052766;28;20046;-53
2023/09/03 03:08:48;;;;;;;6.75;3.67;;;;;;;25.29;52.02;99241.81;2052698;28;20050;-53
2023/09/03 03:09:50;;;;;;;4.13;2.92;;;;;;;25.27;51.70;99246.63;2055482;28;20046;-51
2023/09/03 03:10:52;;;;;;;4.28;2.80;;;;;;;25.30;51.98;99240.78;2054553;28;23767;-53
2023/09/03 03:11:53;;;;;;;7.63;2.63;;;;;;;25.31;51.73;99239.69;2054408;28;20050;-53
2023/09/03 03:12:54;;;;;;;6.95;2.92;;;;;;;25.34;52.01;99239.22;2052773;28;20165;-52
2023/09/03 03:13:55;;;;;;;6.38;2.80;;;;;;;25.34;52.00;99236.50;2055460;28;20139;-53
2023/09/03 03:14:57;;;;;;;4.28;2.50;;;;;;;25.36;51.43;99239.84;2052169;28;20056;-52
2023/09/03 03:16:04;;;;;;;3.53;2.72;;;;;;;25.34;51.85;99240.06;2054668;28;20061;-53
2023/09/03 03:17:07;;;;;;;3.45;2.33;;;;;;;25.36;51.76;99237.13;2052569;28;20153;-53
2023/09/03 03:18:08;;;;;;;7.00;3.03;;;;;;;25.35;51.58;99235.44;2053831;28;20469;-53
2023/09/03 03:19:10;;;;;;;10.30;3.08;;;;;;;25.31;51.66;99242.41;2052218;28;20492;-53
2023/09/03 03:20:11;;;;;;;5.88;2.58;;;;;;;25.31;51.83;99239.69;2054720;28;20133;-52
2023/09/03 03:21:14;;;;;;;4.80;2.65;;;;;;;25.30;52.15;99243.47;2055907;28;20048;-50
2023/09/03 03:22:16;;;;;;;5.47;3.10;;;;;;;25.32;52.24;99241.34;2054738;28;20568;-53
2023/09/03 03:23:17;;;;;;;3.85;2.60;;;;;;;25.35;51.91;99239.00;2054985;28;20069;-53
2023/09/03 03:24:19;;;;;;;8.13;3.05;;;;;;;25.38;51.54;99252.13;2053952;28;20077;-52
2023/09/03 03:25:20;;;;;;;4.82;2.63;;;;;;;25.41;51.82;99246.22;2055945;28;20050;-60
2023/09/03 03:26:22;;;;;;;6.03;2.97;;;;;;;25.44;51.67;99246.81;2055304;28;20124;-53
2023/09/03 03:27:23;;;;;;;5.75;3.08;;;;;;;25.46;51.71;99242.78;2054163;28;20055;-52
2023/09/03 03:28:24;;;;;;;7.85;3.00;;;;;;;25.47;51.26;99249.06;2053853;28;20867;-50
2023/09/03 03:29:28;;;;;;;5.00;2.60;;;;;;;25.48;51.56;99251.53;2055060;28;20046;-50
2023/09/03 03:30:29;;;;;;;5.15;3.05;;;;;;;25.50;51.43;99243.16;2053484;28;20895;-51
2023/09/03 03:31:32;;;;;;;6.05;3.13;;;;;;;25.49;51.23;99242.34;2052700;28;20050;-51
2023/09/03 03:32:34;;;;;;;3.70;2.38;;;;;;;25.52;51.45;99246.44;2052151;28;20047;-52
2023/09/03 03:33:36;;;;;;;5.90;3.25;;;;;;;25.51;51.36;99240.19;2054625;28;20054;-50
2023/09/03 03:34:40;;;;;;;8.98;2.70;;;;;;;25.50;50.97;99243.97;2053214;28;20816;-55
2023/09/03 03:35:42;;;;;;;2.75;2.38;;;;;;;25.51;51.53;99242.91;2053227;28;20212;-51
2023/09/03 03:36:42;;;;;;;6.05;2.70;;;;;;;25.51;51.43;99242.91;2052803;28;20050;-56
2023/09/03 03:37:44;;;;;;;5.30;2.63;;;;;;;25.51;51.38;99242.09;2051761;28;20591;-55
2023/09/03 03:38:46;;;;;;;5.28;2.30;;;;;;;25.50;51.00;99248.59;2054037;28;20116;-51
2023/09/03 03:39:49;;;;;;;8.07;3.08;;;;;;;25.50;51.07;99243.97;2052068;28;20042;-54
2023/09/03 03:40:50;;;;;;;4.72;2.58;;;;;;;25.50;51.68;99243.16;2054956;28;20069;-54
2023/09/03 03:41:52;;;;;;;4.45;2.58;;;;;;;25.50;51.60;99241.25;2052733;28;20042;-52
2023/09/03 03:42:53;;;;;;;3.80;2.75;;;;;;;25.49;51.36;99253.19;2054089;28;20038;-53
2023/09/03 03:43:54;;;;;;;5.70;2.75;;;;;;;25.50;51.53;99248.59;2052456;28;20580;-51
2023/09/03 03:44:55;;;;;;;3.65;2.33;;;;;;;25.49;51.70;99250.50;2054440;28;20061;-50
2023/09/03 03:45:58;;;;;;;3.38;2.88;;;;;;;25.49;51.56;99252.34;2052636;28;20071;-48
2023/09/03 03:46:59;;;;;;;3.70;2.17;;;;;;;25.49;51.63;99246.91;2053126;28;20094;-51
2023/09/03 03:48:03;;;;;;;3.15;2.42;;;;;;;25.48;51.54;99248.81;2053298;28;20173;-51
2023/09/03 03:49:04;;;;;;;3.72;2.55;;;;;;;25.47;51.07;99249.88;2052325;28;20133;-52
2023/09/03 03:50:07;;;;;;;4.78;3.22;;;;;;;25.47;51.13;99247.16;2052297;28;20425;-54
2023/09/03 03:51:08;;;;;;;3.70;2.70;;;;;;;25.49;51.40;99244.19;2055926;28;20051;-52
2023/09/03 03:52:09;;;;;;;5.65;2.47;;;;;;;25.48;51.23;99248.81;2052812;28;20398;-54
2023/09/03 03:53:10;;;;;;;5.35;2.83;;;;;;;25.48;50.80;99246.09;2052034;28;20051;-54
2023/09/03 03:54:12;;;;;;;7.28;2.47;;;;;;;25.50;51.20;99254.84;2053209;28;20052;-54
2023/09/03 03:55:13;;;;;;;3.78;2.40;;;;;;;25.47;51.04;99258.03;2053624;28;20053;-51
2023/09/03 03:56:15;;;;;;;3.70;2.55;;;;;;;25.47;51.20;99251.78;2053060;28;20057;-51
2023/09/03 03:57:15;;;;;;;6.10;2.47;;;;;;;25.46;51.13;99255.53;2052070;28;20232;-53
2023/09/03 03:58:17;;;;;;;4.93;3.22;;;;;;;25.46;51.07;99263.69;2050585;28;20053;-48
2023/09/03 03:59:18;;;;;;;5.38;2.85;;;;;;;25.47;51.08;99255.31;2054320;28;20046;-48
2023/09/03 04:00:20;;;;;;;3.33;2.28;;;;;;;25.44;50.80;99258.50;2053286;28;20532;-54
2023/09/03 04:01:23;;;;;;;3.63;2.13;;;;;;;25.45;50.95;99262.84;2054009;28;20552;-54
2023/09/03 04:02:25;;;;;;;4.18;2.72;;;;;;;25.45;50.74;99265.56;2052525;28;20061;-55
2023/09/03 04:03:28;;;;;;;8.40;2.53;;;;;;;25.42;50.62;99263.34;2054364;28;20109;-57
2023/09/03 04:04:30;;;;;;;7.28;2.88;;;;;;;25.44;51.13;99269.38;2053225;28;20483;-48
2023/09/03 04:05:30;;;;;;;4.15;2.10;;;;;;;25.43;50.84;99259.53;2052135;28;20484;-49
2023/09/03 04:06:33;;;;;;;3.97;2.13;;;;;;;25.41;50.84;99267.13;2053042;28;20330;-49
2023/09/03 04:07:33;;;;;;;5.28;2.38;;;;;;;25.44;50.60;99268.53;2053415;28;20048;-48
2023/09/03 04:08:38;;;;;;;4.35;2.50;;;;;;;25.43;50.73;99270.41;2054943;28;20543;-49
2023/09/03 04:09:40;;;;;;;3.88;2.75;;;;;;;25.40;50.51;99270.88;2053654;28;20610;-54
2023/09/03 04:10:41;;;;;;;3.53;2.58;;;;;;;25.40;50.81;99265.44;2055110;28;20057;-50
2023/09/03 04:11:42;;;;;;;5.82;2.75;;;;;;;25.41;50.81;99270.66;2051894;28;20105;-54
2023/09/03 04:12:44;;;;;;;4.50;2.22;;;;;;;25.42;50.67;99268.75;2053544;28;20128;-51
2023/09/03 04:13:45;;;;;;;3.55;2.17;;;;;;;25.42;50.53;99269.59;2053280;28;20054;-50
2023/09/03 04:14:47;;;;;;;6.47;3.30;;;;;;;25.43;50.87;99267.69;2054372;28;20521;-48
2023/09/03 04:15:48;;;;;;;4.32;2.83;;;;;;;25.45;50.93;99264.75;2054228;28;20050;-51
2023/09/03 04:16:49;;;;;;;5.20;2.70;;;;;;;25.45;50.49;99264.75;2054660;28;20048;-52
2023/09/03 04:17:50;;;;;;;4.30;2.20;;;;;;;25.44;50.51;99269.38;2052582;28;20078;-54
2023/09/03 04:18:53;;;;;;;6.30;2.50;;;;;;;25.46;50.60;99274.53;2052974;28;20046;-48
2023/09/03 04:19:54;;;;;;;4.22;2.70;;;;;;;25.44;50.87;99266.66;2054371;28;20583;-48
2023/09/03 04:20:57;;;;;;;4.00;2.78;;;;;;;25.43;50.76;99270.41;2052004;28;20221;-48
2023/09/03 04:21:59;;;;;;;4.53;2.70;;;;;;;25.43;50.58;99264.97;2052324;28;20100;-53
2023/09/03 04:23:03;;;;;;;5.65;2.75;;;;;;;25.42;51.02;99266.88;2053221;28;20074;-49
2023/09/03 04:24:06;;;;;;;3.95;2.50;;;;;;;25.42;50.55;99257.91;2054246;28;20137;-50
2023/09/03 04:25:08;;;;;;;7.13;2.20;;;;;;;25.40;51.02;99265.44;2051986;28;20424;-51
2023/09/03 04:26:09;;;;;;;8.52;2.72;;;;;;;25.35;50.72;99262.59;2053480;28;20528;-56
2023/09/03 04:27:11;;;;;;;7.03;2.22;;;;;;;25.34;51.02;99260.94;2052781;28;20600;-51
2023/09/03 04:28:12;;;;;;;4.38;2.28;;;;;;;25.32;51.19;99263.06;2053829;28;20053;-52
2023/09/03 04:29:14;;;;;;;4.47;2.20;;;;;;;25.27;51.29;99263.78;2054405;28;20046;-50
2023/09/03 04:30:15;;;;;;;3.33;2.45;;;;;;;25.27;51.37;99266.50;2055889;28;20526;-53
2023/09/03 04:31:17;;;;;;;5.18;3.42;;;;;;;25.28;51.43;99275.47;2055656;28;20343;-52
2023/09/03 04:32:18;;;;;;;2.95;1.98;;;;;;;25.28;51.37;99270.84;2055922;28;20069;-49
2023/09/03 04:33:20;;;;;;;4.30;2.70;;;;;;;25.31;51.27;99272.28;2054766;28;20046;-54
2023/09/03 04:34:22;;;;;;;5.70;2.25;;;;;;;25.30;51.31;99274.16;2053589;28;20046;-53
2023/09/03 04:35:24;;;;;;;3.47;2.28;;;;;;;25.30;51.28;99276.06;2054306;28;20454;-53
2023/09/03 04:36:25;;;;;;;5.90;3.17;;;;;;;25.28;51.09;99272.75;2054011;28;20054;-50
2023/09/03 04:37:27;;;;;;;6.43;2.55;;;;;;;25.28;51.53;99275.47;2054140;28;20042;-50
2023/09/03 04:38:28;;;;;;;4.40;2.70;;;;;;;25.29;51.12;99268.97;2054082;28;20138;-55
2023/09/03 04:39:30;;;;;;;2.63;2.42;;;;;;;25.32;51.28;99273.91;2056167;28;20701;-54
2023/09/03 04:40:32;;;;;;;3.20;2.45;;;;;;;25.31;51.19;99264.13;2053571;28;20058;-55
2023/09/03 04:41:34;;;;;;;5.95;2.83;;;;;;;25.30;51.21;99268.75;2053568;28;20490;-55
2023/09/03 04:42:35;;;;;;;7.13;3.00;;;;;;;25.30;51.09;99271.47;2054709;28;20070;-48
2023/09/03 04:43:36;;;;;;;6.25;2.80;;;;;;;25.29;51.07;99264.34;2054942;28;20054;-51
2023/09/03 04:44:39;;;;;;;2.92;2.15;;;;;;;25.30;50.88;99267.91;2056357;28;20133;-55
2023/09/03 04:45:45;;;;;;;2.85;2.28;;;;;;;25.24;51.13;99266.09;2055866;28;20666;-50
2023/09/03 04:46:47;;;;;;;5.32;2.70;;;;;;;25.21;51.35;99274.72;2051865;28;20061;-53
2023/09/03 04:47:48;;;;;;;6.05;1.98;;;;;;;25.25;51.30;99274.03;2053620;28;20484;-55
2023/09/03 04:48:50;;;;;;;6.40;3.15;;;;;;;25.26;51.25;99280.28;2054892;28;20050;-48
2023/09/03 04:49:52;;;;;;;3.58;2.33;;;;;;;25.24;51.46;99282.41;2053937;28;20085;-51
2023/09/03 04:50:57;;;;;;;6.95;2.22;;;;;;;25.23;51.43;99280.75;2057036;28;20069;-51
2023/09/03 04:51:58;;;;;;;5.00;2.50;;;;;;;25.18;51.48;99282.28;2055715;28;20082;-49
2023/09/03 04:52:59;;;;;;;3.85;2.30;;;;;;;25.15;51.66;99284.63;2052107;28;20053;-49
2023/09/03 04:54:00;;;;;;;6.25;2.63;;;;;;;25.13;51.64;99286.69;2054922;28;20057;-53
2023/09/03 04:55:01;;;;;;;4.43;2.53;;;;;;;25.13;51.54;99283.97;2053688;28;20046;-48